Time;durP1;ratioP1;P1;durP2;ratioP2;P2;SDS_P1;SDS_P2;PMS_P1;PMS_P2;Temp;Humidity;BMP_temperature;BMP_pressure;BME280_temperature;BME280_humidity;BME280_pressure;Samples;Min_cycle;Max_cycle;Signal;HPM_P1;HPM_P2
2023/11/03 00:04:25;;;;;;;;;;;;;;;6.84;100.00;93101.06;10565054;28;1916;-70
2023/11/03 00:09:32;;;;;;;;;;;;;;;6.75;100.00;93049.56;10538654;28;2148;-70
2023/11/03 00:14:35;;;;;;;;;;;;;;;6.71;100.00;92985.31;10535677;28;2291;-71
2023/11/03 00:19:38;;;;;;;;;;;;;;;6.73;100.00;93022.38;10562301;28;1967;-73
2023/11/03 00:24:40;;;;;;;;;;;;;;;6.69;100.00;93006.22;10569349;28;1868;-69
2023/11/03 00:29:43;;;;;;;;;;;;;;;6.77;100.00;93007.28;10564675;27;1976;-69
2023/11/03 00:34:46;;;;;;;;;;;;;;;6.73;100.00;93065.09;10573003;27;2680;-73
2023/11/03 00:39:50;;;;;;;;;;;;;;;6.77;100.00;93050.00;10572167;27;2214;-69
2023/11/03 00:44:53;;;;;;;;;;;;;;;6.87;100.00;93024.84;10571835;27;2001;-71
2023/11/03 00:49:55;;;;;;;;;;;;;;;6.86;100.00;92991.25;10568202;27;2206;-69
2023/11/03 00:54:58;;;;;;;;;;;;;;;6.89;100.00;93028.78;10572887;27;5147;-69
2023/11/03 01:00:00;;;;;;;;;;;;;;;6.87;100.00;93071.06;10567159;27;1910;-69
2023/11/03 01:05:04;;;;;;;;;;;;;;;6.90;100.00;93067.75;10578382;27;2015;-74
2023/11/03 01:10:09;;;;;;;;;;;;;;;6.89;100.00;93050.16;10563169;27;2110;-69
2023/11/03 01:15:12;;;;;;;;;;;;;;;6.98;100.00;93055.47;10569947;27;2896;-70
2023/11/03 01:20:19;;;;;;;;;;;;;;;6.97;100.00;93040.56;10571036;27;1988;-69
2023/11/03 01:25:22;;;;;;;;;;;;;;;6.97;100.00;93059.25;10564480;27;2088;-75
2023/11/03 01:30:25;;;;;;;;;;;;;;;6.98;100.00;93044.78;10560105;27;2133;-69
2023/11/03 01:35:28;;;;;;;;;;;;;;;6.97;100.00;93064.59;10568674;27;2084;-69
2023/11/03 01:40:31;;;;;;;;;;;;;;;6.91;100.00;92991.88;10571560;27;2142;-70
2023/11/03 01:45:33;;;;;;;;;;;;;;;6.82;100.00;92967.09;10553292;27;2361;-70
2023/11/03 01:50:36;;;;;;;;;;;;;;;6.70;100.00;92982.97;10568405;27;2052;-71
2023/11/03 01:55:38;;;;;;;;;;;;;;;6.69;100.00;92984.84;10574590;27;5197;-70
2023/11/03 02:00:41;;;;;;;;;;;;;;;6.69;100.00;93000.09;10565183;27;1933;-70
2023/11/03 02:05:43;;;;;;;;;;;;;;;6.70;100.00;93009.66;10568120;27;1891;-70
2023/11/03 02:10:46;;;;;;;;;;;;;;;6.70;100.00;93017.66;10571441;27;1895;-69
2023/11/03 02:15:49;;;;;;;;;;;;;;;6.66;100.00;93024.72;10565099;27;2087;-69
2023/11/03 02:20:52;;;;;;;;;;;;;;;6.70;100.00;93007.00;10564446;27;2056;-69
2023/11/03 02:25:54;;;;;;;;;;;;;;;6.70;100.00;93004.31;10565662;27;2165;-70
2023/11/03 02:30:57;;;;;;;;;;;;;;;6.74;100.00;93002.56;10567871;27;2116;-69
2023/11/03 02:35:59;;;;;;;;;;;;;;;6.68;100.00;92998.50;10563818;27;2551;-71
2023/11/03 02:41:03;;;;;;;;;;;;;;;6.65;100.00;92980.47;10563721;27;2176;-74
2023/11/03 02:46:05;;;;;;;;;;;;;;;6.59;100.00;92963.03;10568490;27;2072;-75
2023/11/03 02:51:08;;;;;;;;;;;;;;;6.61;100.00;92958.16;10564192;27;2024;-73
2023/11/03 02:56:10;;;;;;;;;;;;;;;6.54;100.00;92955.97;10574289;27;1928;-68
2023/11/03 03:01:13;;;;;;;;;;;;;;;6.59;100.00;92941.69;10568698;27;2111;-70
2023/11/03 03:06:15;;;;;;;;;;;;;;;6.57;100.00;92965.25;10561579;27;1969;-69
2023/11/03 03:11:18;;;;;;;;;;;;;;;6.62;100.00;92967.75;10557166;28;2055;-69
2023/11/03 03:16:21;;;;;;;;;;;;;;;6.58;100.00;92966.81;10561855;28;1954;-74
2023/11/03 03:21:23;;;;;;;;;;;;;;;6.56;100.00;92963.69;10571947;27;1996;-71
2023/11/03 03:26:26;;;;;;;;;;;;;;;6.54;100.00;92947.19;10562007;27;2167;-71
2023/11/03 03:31:28;;;;;;;;;;;;;;;6.54;100.00;92939.97;10567964;27;2355;-73
2023/11/03 03:36:31;;;;;;;;;;;;;;;6.49;100.00;92937.47;10569218;27;2028;-69
2023/11/03 03:41:33;;;;;;;;;;;;;;;6.48;100.00;92931.34;10560654;27;2056;-70
2023/11/03 03:46:36;;;;;;;;;;;;;;;6.45;100.00;92945.31;10560965;28;2130;-71
2023/11/03 03:51:38;;;;;;;;;;;;;;;6.50;100.00;92941.72;10558865;28;5167;-71
2023/11/03 03:56:41;;;;;;;;;;;;;;;6.49;100.00;92943.59;10562552;28;2020;-70
2023/11/03 04:01:46;;;;;;;;;;;;;;;6.46;100.00;92956.78;10560711;28;2032;-73
2023/11/03 04:06:49;;;;;;;;;;;;;;;6.41;100.00;92956.94;10565005;27;2109;-70
2023/11/03 04:11:52;;;;;;;;;;;;;;;6.41;100.00;92957.72;10567430;27;2119;-71
2023/11/03 04:16:54;;;;;;;;;;;;;;;6.37;100.00;92950.69;10558209;27;2032;-70
2023/11/03 04:21:57;;;;;;;;;;;;;;;6.37;100.00;92954.13;10569446;27;1997;-70
2023/11/03 04:27:00;;;;;;;;;;;;;;;6.35;100.00;92950.97;10569964;27;2338;-70
2023/11/03 04:32:02;;;;;;;;;;;;;;;6.31;100.00;92947.38;10572730;27;2388;-72
2023/11/03 04:37:05;;;;;;;;;;;;;;;6.28;100.00;92936.56;10570630;27;2291;-69
2023/11/03 04:42:08;;;;;;;;;;;;;;;6.23;100.00;92934.81;10569195;27;2028;-70
2023/11/03 04:47:10;;;;;;;;;;;;;;;6.22;100.00;92933.25;10574779;27;1968;-71
2023/11/03 04:52:13;;;;;;;;;;;;;;;6.25;100.00;92910.53;10568595;27;5345;-69
2023/11/03 04:57:16;;;;;;;;;;;;;;;6.18;100.00;92921.66;10578376;27;2075;-70
2023/11/03 05:02:19;;;;;;;;;;;;;;;6.14;100.00;92942.06;10571595;27;2039;-70
2023/11/03 05:07:22;;;;;;;;;;;;;;;6.16;100.00;92961.19;10568280;27;1933;-71
2023/11/03 05:12:25;;;;;;;;;;;;;;;6.18;100.00;92965.13;10557028;27;2020;-70
2023/11/03 05:17:28;;;;;;;;;;;;;;;6.23;100.00;92967.66;10570656;27;2114;-71
2023/11/03 05:22:30;;;;;;;;;;;;;;;6.24;100.00;92968.44;10570661;27;2272;-70
2023/11/03 05:27:33;;;;;;;;;;;;;;;6.22;100.00;92959.94;10569210;27;2025;-71
2023/11/03 05:32:35;;;;;;;;;;;;;;;6.18;100.00;92969.69;10565683;27;2060;-70
2023/11/03 05:37:38;;;;;;;;;;;;;;;6.28;100.00;92957.91;10577004;27;1985;-70
2023/11/03 05:42:40;;;;;;;;;;;;;;;6.31;100.00;92952.72;10562041;27;2132;-70
2023/11/03 05:47:42;;;;;;;;;;;;;;;6.29;100.00;92957.56;10566053;27;2181;-71
2023/11/03 05:52:45;;;;;;;;;;;;;;;6.27;100.00;92972.34;10572854;27;5302;-70
2023/11/03 05:57:47;;;;;;;;;;;;;;;6.26;100.00;92965.44;10560905;27;2062;-71
2023/11/03 06:02:52;;;;;;;;;;;;;;;6.22;100.00;92965.25;10548100;27;1985;-72
2023/11/03 06:07:54;;;;;;;;;;;;;;;6.23;100.00;92967.66;10550425;27;2283;-71
2023/11/03 06:12:59;;;;;;;;;;;;;;;6.18;100.00;92970.47;10563771;27;1964;-71
2023/11/03 06:18:02;;;;;;;;;;;;;;;6.22;100.00;92967.94;10567606;27;1945;-70
2023/11/03 06:23:04;;;;;;;;;;;;;;;6.27;100.00;92973.13;10564148;27;2221;-74
2023/11/03 06:28:07;;;;;;;;;;;;;;;6.23;100.00;92998.84;10562259;27;1959;-70
2023/11/03 06:33:09;;;;;;;;;;;;;;;6.31;100.00;93011.41;10561238;27;2049;-73
2023/11/03 06:38:12;;;;;;;;;;;;;;;6.37;100.00;93026.16;10566007;27;2273;-71
2023/11/03 06:43:15;;;;;;;;;;;;;;;6.43;100.00;93013.47;10548908;27;2207;-73
2023/11/03 06:48:18;;;;;;;;;;;;;;;6.45;100.00;93003.25;10572031;27;1979;-74
2023/11/03 06:53:21;;;;;;;;;;;;;;;6.47;100.00;93028.50;10563909;27;5188;-75
2023/11/03 06:58:24;;;;;;;;;;;;;;;6.61;100.00;93033.69;10566880;27;2008;-76
2023/11/03 07:03:27;;;;;;;;;;;;;;;6.61;100.00;93031.00;10564430;27;1921;-72
2023/11/03 07:08:34;;;;;;;;;;;;;;;6.61;100.00;93023.00;10560816;27;2117;-72
2023/11/03 07:13:36;;;;;;;;;;;;;;;6.56;100.00;93022.41;10544886;27;1900;-75
2023/11/03 07:18:40;;;;;;;;;;;;;;;6.42;100.00;93012.66;10560432;28;1933;-71
2023/11/03 07:23:44;;;;;;;;;;;;;;;6.42;100.00;93020.66;10559278;27;2041;-71
2023/11/03 07:28:46;;;;;;;;;;;;;;;6.43;100.00;93018.78;10555604;27;1879;-74
2023/11/03 07:33:49;;;;;;;;;;;;;;;6.42;100.00;93023.31;10562919;27;1900;-71
2023/11/03 07:38:52;;;;;;;;;;;;;;;6.52;100.00;93021.44;10568431;27;1982;-72
2023/11/03 07:43:55;;;;;;;;;;;;;;;6.64;100.00;93026.94;10564013;28;2006;-71
2023/11/03 07:48:57;;;;;;;;;;;;;;;6.55;100.00;93026.16;10553873;28;1973;-72
2023/11/03 07:54:00;;;;;;;;;;;;;;;6.62;100.00;93051.28;10557982;28;5155;-72
2023/11/03 07:59:02;;;;;;;;;;;;;;;6.59;100.00;93065.25;10564157;28;2067;-74
2023/11/03 08:04:05;;;;;;;;;;;;;;;6.59;100.00;93062.56;10549208;28;2335;-76
2023/11/03 08:09:11;;;;;;;;;;;;;;;6.53;100.00;93071.84;10546450;28;2059;-79
2023/11/03 08:14:14;;;;;;;;;;;;;;;6.62;100.00;93087.88;10565000;28;1935;-73
2023/11/03 08:19:16;;;;;;;;;;;;;;;6.67;100.00;93090.38;10541591;28;2043;-72
2023/11/03 08:24:19;;;;;;;;;;;;;;;6.74;100.00;93093.34;10540131;28;2010;-72
2023/11/03 08:29:22;;;;;;;;;;;;;;;6.73;100.00;93100.56;10560524;28;2353;-73
2023/11/03 08:34:25;;;;;;;;;;;;;;;6.80;100.00;93102.75;10557994;28;1928;-72
2023/11/03 08:39:27;;;;;;;;;;;;;;;6.80;100.00;93118.00;10561856;28;2051;-73
2023/11/03 08:44:31;;;;;;;;;;;;;;;6.75;100.00;93126.97;10538153;28;2068;-71
2023/11/03 08:49:35;;;;;;;;;;;;;;;6.71;100.00;93126.81;10560193;27;2222;-71
2023/11/03 08:54:37;;;;;;;;;;;;;;;6.66;100.00;93128.84;10570926;27;5144;-72
2023/11/03 08:59:40;;;;;;;;;;;;;;;6.77;100.00;93114.88;10565210;27;2053;-73
2023/11/03 09:04:43;;;;;;;;;;;;;;;6.86;100.00;93128.22;10568513;27;2106;-71
2023/11/03 09:09:46;;;;;;;;;;;;;;;7.03;100.00;93128.22;10566096;27;2093;-69
2023/11/03 09:14:48;;;;;;;;;;;;;;;7.26;100.00;93122.69;10570697;27;1976;-70
2023/11/03 09:19:51;;;;;;;;;;;;;;;7.08;100.00;93124.59;10571535;27;2063;-72
2023/11/03 09:24:56;;;;;;;;;;;;;;;7.16;100.00;93136.38;10568556;27;2241;-71
2023/11/03 09:30:00;;;;;;;;;;;;;;;7.31;100.00;93125.97;10562783;27;2254;-73
2023/11/03 09:35:02;;;;;;;;;;;;;;;7.24;100.00;93132.91;10559393;27;1930;-71
2023/11/03 09:40:06;;;;;;;;;;;;;;;7.37;100.00;93137.28;10574283;27;2118;-71
2023/11/03 09:45:15;;;;;;;;;;;;;;;7.51;100.00;93143.25;10563969;27;2162;-73
2023/11/03 09:50:17;;;;;;;;;;;;;;;7.39;100.00;93145.00;10542858;27;2093;-73
2023/11/03 09:55:21;;;;;;;;;;;;;;;7.37;100.00;93147.97;10561166;27;2060;-71
2023/11/03 10:00:24;;;;;;;;;;;;;;;7.64;100.00;93138.03;10567806;27;1997;-73
2023/11/03 10:05:30;;;;;;;;;;;;;;;7.63;100.00;93129.19;10557042;27;2011;-70
2023/11/03 10:10:34;;;;;;;;;;;;;;;7.51;100.00;93135.22;10567739;27;2008;-75
2023/11/03 10:15:37;;;;;;;;;;;;;;;7.53;100.00;93129.56;10569353;27;1896;-70
2023/11/03 10:20:40;;;;;;;;;;;;;;;7.56;100.00;93119.00;10564007;27;2412;-73
2023/11/03 10:25:43;;;;;;;;;;;;;;;7.51;100.00;93121.88;10563447;27;2118;-71
2023/11/03 10:30:46;;;;;;;;;;;;;;;7.42;100.00;93120.28;10567308;27;2064;-71
2023/11/03 10:35:48;;;;;;;;;;;;;;;7.45;100.00;93117.78;10554899;27;2022;-73
2023/11/03 10:40:51;;;;;;;;;;;;;;;7.19;100.00;93135.72;10560771;27;2044;-72
2023/11/03 10:45:56;;;;;;;;;;;;;;;7.09;100.00;93126.16;10557225;27;1958;-71
2023/11/03 10:50:59;;;;;;;;;;;;;;;7.15;100.00;93135.59;10560549;27;2022;-72
2023/11/03 10:56:02;;;;;;;;;;;;;;;7.28;100.00;93137.31;10561005;27;1929;-72
2023/11/03 11:01:25;;;;;;;;;;;;;;;7.25;100.00;93139.81;10553944;27;2016;-71
2023/11/03 11:06:28;;;;;;;;;;;;;;;6.94;100.00;93130.13;10566705;27;1939;-71
2023/11/03 11:11:30;;;;;;;;;;;;;;;6.98;100.00;93130.25;10564484;27;1998;-72
2023/11/03 11:16:32;;;;;;;;;;;;;;;7.18;100.00;93142.19;10563042;27;1961;-72
2023/11/03 11:21:36;;;;;;;;;;;;;;;7.23;100.00;93145.47;10562472;27;2115;-71
2023/11/03 11:26:40;;;;;;;;;;;;;;;7.23;100.00;93158.84;10535364;27;1927;-69
2023/11/03 11:31:43;;;;;;;;;;;;;;;7.08;100.00;93162.00;10559937;27;2016;-71
2023/11/03 11:36:47;;;;;;;;;;;;;;;6.80;100.00;93174.06;10567407;27;2087;-70
2023/11/03 11:41:50;;;;;;;;;;;;;;;6.76;100.00;93172.03;10559726;27;2159;-69
2023/11/03 11:46:53;;;;;;;;;;;;;;;6.45;100.00;93182.03;10560072;28;1896;-71
2023/11/03 11:51:56;;;;;;;;;;;;;;;6.36;100.00;93182.03;10564576;28;5214;-71
2023/11/03 11:57:00;;;;;;;;;;;;;;;6.15;100.00;93183.66;10554233;28;2103;-69
2023/11/03 12:02:03;;;;;;;;;;;;;;;5.88;100.00;93195.31;10547260;28;1912;-69
2023/11/03 12:07:05;;;;;;;;;;;;;;;5.72;100.00;93192.22;10555448;28;1935;-70
2023/11/03 12:12:08;;;;;;;;;;;;;;;5.80;100.00;93204.84;10552063;28;2324;-72
2023/11/03 12:17:10;;;;;;;;;;;;;;;5.85;100.00;93201.22;10560981;28;1993;-75
2023/11/03 12:22:13;;;;;;;;;;;;;;;5.97;100.00;93202.25;10557713;28;2264;-69
2023/11/03 12:27:16;;;;;;;;;;;;;;;5.96;100.00;93200.69;10565140;27;1882;-70
2023/11/03 12:32:19;;;;;;;;;;;;;;;6.22;100.00;93200.00;10571228;27;2561;-68
2023/11/03 12:37:22;;;;;;;;;;;;;;;6.42;100.00;93201.31;10570964;27;2032;-70
2023/11/03 12:42:26;;;;;;;;;;;;;;;6.42;100.00;93202.09;10571134;27;2240;-69
2023/11/03 12:47:28;;;;;;;;;;;;;;;6.60;100.00;93210.16;10566258;27;2110;-69
2023/11/03 12:52:32;;;;;;;;;;;;;;;6.64;100.00;93211.91;10568950;27;5221;-71
2023/11/03 12:57:34;;;;;;;;;;;;;;;6.73;100.00;93218.03;10567271;27;1997;-71
2023/11/03 13:02:37;;;;;;;;;;;;;;;6.94;100.00;93226.25;10542682;27;2163;-70
2023/11/03 13:07:40;;;;;;;;;;;;;;;6.95;100.00;93219.81;10562598;27;1958;-73
2023/11/03 13:12:42;;;;;;;;;;;;;;;6.88;100.00;93211.47;10565888;27;1915;-70
2023/11/03 13:17:45;;;;;;;;;;;;;;;6.72;100.00;93213.81;10559719;27;1865;-70
2023/11/03 13:22:49;;;;;;;;;;;;;;;6.73;100.00;93211.91;10575102;27;2272;-70
2023/11/03 13:27:52;;;;;;;;;;;;;;;6.58;100.00;93218.50;10563668;27;2401;-70
2023/11/03 13:32:55;;;;;;;;;;;;;;;6.62;100.00;93222.13;10567446;27;1908;-70
2023/11/03 13:37:57;;;;;;;;;;;;;;;6.73;100.00;93218.03;10560864;27;2114;-70
2023/11/03 13:42:59;;;;;;;;;;;;;;;6.79;100.00;93218.69;10568543;27;2040;-70
2023/11/03 13:48:02;;;;;;;;;;;;;;;6.86;100.00;93229.69;10563013;27;2095;-71
2023/11/03 13:53:04;;;;;;;;;;;;;;;6.93;100.00;93239.91;10569408;27;5119;-71
2023/11/03 13:58:07;;;;;;;;;;;;;;;6.86;100.00;93252.94;10563605;27;1891;-71
2023/11/03 14:03:11;;;;;;;;;;;;;;;6.75;100.00;93255.13;10551388;27;2052;-74
2023/11/03 14:08:13;;;;;;;;;;;;;;;6.54;100.00;93267.44;10565191;27;1863;-71
2023/11/03 14:13:16;;;;;;;;;;;;;;;5.66;100.00;93281.41;10563145;27;1966;-72
2023/11/03 14:18:19;;;;;;;;;;;;;;;5.48;100.00;93277.84;10559758;27;2079;-71
2023/11/03 14:23:21;;;;;;;;;;;;;;;5.45;100.00;93286.44;10567674;27;1963;-71
2023/11/03 14:28:24;;;;;;;;;;;;;;;5.73;100.00;93289.78;10562936;27;2544;-75
2023/11/03 14:33:26;;;;;;;;;;;;;;;6.07;100.00;93291.09;10557870;27;2123;-72
2023/11/03 14:38:29;;;;;;;;;;;;;;;6.29;100.00;93296.38;10564644;27;1992;-73
2023/11/03 14:43:31;;;;;;;;;;;;;;;6.46;100.00;93306.34;10564961;27;2111;-74
2023/11/03 14:48:34;;;;;;;;;;;;;;;6.45;100.00;93312.78;10565082;27;1907;-73
2023/11/03 14:53:36;;;;;;;;;;;;;;;6.44;100.00;93311.22;10565858;27;5219;-71
2023/11/03 14:58:39;;;;;;;;;;;;;;;6.44;100.00;93320.03;10565451;28;2059;-71
2023/11/03 15:03:42;;;;;;;;;;;;;;;6.49;100.00;93330.56;10568008;27;2011;-71
2023/11/03 15:08:44;;;;;;;;;;;;;;;6.48;100.00;93331.63;10565993;27;2012;-71
2023/11/03 15:13:48;;;;;;;;;;;;;;;6.44;100.00;93335.25;10567489;27;1973;-70
2023/11/03 15:18:51;;;;;;;;;;;;;;;6.42;100.00;93332.84;10557390;27;1928;-70
2023/11/03 15:23:54;;;;;;;;;;;;;;;6.24;100.00;93333.88;10552309;27;2387;-68
2023/11/03 15:28:57;;;;;;;;;;;;;;;6.02;100.00;93337.34;10563783;27;1837;-69
2023/11/03 15:33:59;;;;;;;;;;;;;;;6.01;100.00;93349.13;10569386;27;1969;-68
2023/11/03 15:39:06;;;;;;;;;;;;;;;5.95;100.00;93355.66;10561892;27;1868;-67
2023/11/03 15:44:08;;;;;;;;;;;;;;;5.96;100.00;93355.34;10574224;27;1968;-69
2023/11/03 15:49:11;;;;;;;;;;;;;;;5.96;100.00;93376.69;10573426;28;2047;-69
2023/11/03 15:54:15;;;;;;;;;;;;;;;6.01;100.00;93375.00;10571541;28;5584;-68
2023/11/03 15:59:17;;;;;;;;;;;;;;;6.04;100.00;93382.38;10579273;27;2103;-70
2023/11/03 16:04:23;;;;;;;;;;;;;;;6.03;100.00;93394.13;10562220;27;2064;-73
2023/11/03 16:09:28;;;;;;;;;;;;;;;6.05;100.00;93397.31;10573051;27;1890;-69
2023/11/03 16:14:30;;;;;;;;;;;;;;;6.04;100.00;93399.16;10564809;27;1891;-69
2023/11/03 16:19:32;;;;;;;;;;;;;;;5.94;100.00;93413.53;10569574;27;1952;-67
2023/11/03 16:24:35;;;;;;;;;;;;;;;5.85;100.00;93414.50;10579726;27;2016;-68
2023/11/03 16:29:37;;;;;;;;;;;;;;;5.90;100.00;93427.72;10566838;27;1943;-68
2023/11/03 16:34:40;;;;;;;;;;;;;;;5.99;100.00;93435.84;10564184;27;2710;-74
2023/11/03 16:39:42;;;;;;;;;;;;;;;5.95;100.00;93444.44;10564015;28;1529;-72
2023/11/03 16:44:44;;;;;;;;;;;;;;;5.86;100.00;93446.22;10569907;28;1977;-72
2023/11/03 16:49:47;;;;;;;;;;;;;;;5.82;100.00;93455.91;10568811;27;1456;-70
2023/11/03 16:54:49;;;;;;;;;;;;;;;5.88;100.00;93461.91;10569702;27;5316;-71
2023/11/03 16:59:53;;;;;;;;;;;;;;;5.82;100.00;93461.22;10564708;28;1624;-71
2023/11/03 17:04:55;;;;;;;;;;;;;;;5.75;100.00;93463.53;10567649;28;1976;-72
2023/11/03 17:09:58;;;;;;;;;;;;;;;5.75;100.00;93462.75;10565197;28;1341;-73
2023/11/03 17:15:01;;;;;;;;;;;;;;;5.75;100.00;93468.84;10559043;28;1536;-70
2023/11/03 17:20:11;;;;;;;;;;;;;;;5.69;100.00;93470.06;10563996;28;1829;-73
2023/11/03 17:25:15;;;;;;;;;;;;;;;5.66;100.00;93489.28;10565599;27;1922;-70
2023/11/03 17:30:19;;;;;;;;;;;;;;;5.65;100.00;93501.84;10561407;28;2293;-70
2023/11/03 17:35:22;;;;;;;;;;;;;;;5.63;100.00;93500.56;10573099;27;1987;-71
2023/11/03 17:40:28;;;;;;;;;;;;;;;5.49;100.00;93505.13;10566702;28;1923;-70
2023/11/03 17:45:30;;;;;;;;;;;;;;;5.40;100.00;93511.13;10564739;27;1971;-70
2023/11/03 17:50:33;;;;;;;;;;;;;;;5.43;100.00;93510.53;10571793;28;1427;-69
2023/11/03 17:55:36;;;;;;;;;;;;;;;5.50;100.00;93514.69;10566818;28;5155;-70
2023/11/03 18:00:39;;;;;;;;;;;;;;;5.52;100.00;93525.81;10568030;28;1537;-70
2023/11/03 18:05:42;;;;;;;;;;;;;;;5.55;100.00;93533.25;10566913;28;1987;-70
2023/11/03 18:10:44;;;;;;;;;;;;;;;5.51;100.00;93527.69;10560482;27;1451;-69
2023/11/03 18:15:47;;;;;;;;;;;;;;;5.47;100.00;93525.91;10557304;27;1679;-74
2023/11/03 18:20:50;;;;;;;;;;;;;;;5.45;100.00;93539.53;10561372;28;1499;-68
2023/11/03 18:25:53;;;;;;;;;;;;;;;5.42;100.00;93540.94;10559400;28;1973;-69
2023/11/03 18:30:55;;;;;;;;;;;;;;;5.41;100.00;93549.22;10560332;28;1449;-71
2023/11/03 18:35:58;;;;;;;;;;;;;;;5.46;100.00;93554.44;10568811;27;1527;-71
2023/11/03 18:41:01;;;;;;;;;;;;;;;5.40;100.00;93548.41;10562285;28;1919;-71
2023/11/03 18:46:07;;;;;;;;;;;;;;;5.39;100.00;93543.38;10546340;28;1917;-70
2023/11/03 18:51:09;;;;;;;;;;;;;;;5.40;100.00;93559.06;10554015;28;1499;-70
2023/11/03 18:56:30;;;;;;;;;;;;;;;5.35;100.00;93556.53;10565316;27;5492;-70
2023/11/03 19:01:35;;;;;;;;;;;;;;;5.37;100.00;93559.69;10567477;28;1693;-70
2023/11/03 19:06:59;;;;;;;;;;;;;;;5.37;100.00;93565.00;10573260;27;1917;-71
2023/11/03 19:12:06;;;;;;;;;;;;;;;5.39;100.00;93570.03;10563258;27;2067;-69
2023/11/03 19:17:08;;;;;;;;;;;;;;;5.33;100.00;93580.00;10541327;27;2473;-74
2023/11/03 19:22:13;;;;;;;;;;;;;;;5.29;100.00;93592.34;10561282;27;2716;-68
2023/11/03 19:27:15;;;;;;;;;;;;;;;5.34;100.00;93592.25;10562715;27;2601;-69
2023/11/03 19:32:18;;;;;;;;;;;;;;;5.34;100.00;93605.56;10565605;27;2556;-70
2023/11/03 19:37:22;;;;;;;;;;;;;;;5.40;100.00;93612.34;10562666;27;2670;-69
2023/11/03 19:42:24;;;;;;;;;;;;;;;5.31;100.00;93616.78;10565194;27;2725;-72
2023/11/03 19:47:27;;;;;;;;;;;;;;;5.37;100.00;93628.94;10562122;28;2609;-71
2023/11/03 19:52:30;;;;;;;;;;;;;;;5.40;100.00;93636.34;10565811;28;5210;-72
2023/11/03 19:57:33;;;;;;;;;;;;;;;5.34;100.00;93658.84;10538785;28;2631;-72
2023/11/03 20:02:35;;;;;;;;;;;;;;;5.36;100.00;93648.69;10566703;28;2603;-72
2023/11/03 20:07:38;;;;;;;;;;;;;;;5.23;100.00;93660.09;10562865;28;2605;-72
2023/11/03 20:12:40;;;;;;;;;;;;;;;5.27;100.00;93666.41;10558140;28;2607;-69
2023/11/03 20:17:43;;;;;;;;;;;;;;;5.16;100.00;93675.66;10557172;28;2621;-70
2023/11/03 20:22:45;;;;;;;;;;;;;;;5.20;100.00;93673.97;10551360;28;2647;-71
2023/11/03 20:27:48;;;;;;;;;;;;;;;5.23;100.00;93681.41;10552708;28;2750;-73
2023/11/03 20:32:53;;;;;;;;;;;;;;;5.33;100.00;93691.09;10553261;28;2638;-71
2023/11/03 20:37:55;;;;;;;;;;;;;;;5.39;100.00;93685.38;10565841;28;2600;-71
2023/11/03 20:42:59;;;;;;;;;;;;;;;5.41;100.00;93683.25;10557478;28;2553;-71
2023/11/03 20:48:01;;;;;;;;;;;;;;;5.48;100.00;93679.41;10562046;27;2653;-70
2023/11/03 20:53:05;;;;;;;;;;;;;;;5.51;100.00;93689.47;10564698;27;5317;-70
2023/11/03 20:58:07;;;;;;;;;;;;;;;5.37;100.00;93690.22;10543076;27;2679;-72
2023/11/03 21:03:10;;;;;;;;;;;;;;;5.38;100.00;93689.13;10562697;27;2560;-70
2023/11/03 21:08:13;;;;;;;;;;;;;;;5.29;100.00;93693.56;10565216;27;2584;-72
2023/11/03 21:13:16;;;;;;;;;;;;;;;5.27;100.00;93684.25;10563192;27;2597;-73
2023/11/03 21:18:22;;;;;;;;;;;;;;;5.26;100.00;93686.13;10563402;27;2573;-73
2023/11/03 21:23:24;;;;;;;;;;;;;;;5.26;100.00;93688.81;10564029;27;2602;-72
2023/11/03 21:28:27;;;;;;;;;;;;;;;5.19;100.00;93685.72;10561717;27;2938;-75
2023/11/03 21:33:29;;;;;;;;;;;;;;;5.21;100.00;93688.88;10565454;27;2638;-71
2023/11/03 21:38:32;;;;;;;;;;;;;;;5.28;100.00;93684.00;10562519;27;2582;-69
2023/11/03 21:43:34;;;;;;;;;;;;;;;5.34;100.00;93680.16;10574415;27;2505;-70
2023/11/03 21:48:37;;;;;;;;;;;;;;;5.36;100.00;93678.00;10565272;27;2599;-70
2023/11/03 21:53:40;;;;;;;;;;;;;;;5.41;100.00;93677.91;10560744;27;5207;-71
2023/11/03 21:58:42;;;;;;;;;;;;;;;5.35;100.00;93673.75;10551191;27;2694;-71
2023/11/03 22:03:46;;;;;;;;;;;;;;;5.24;100.00;93672.31;10566913;27;2644;-74
2023/11/03 22:08:49;;;;;;;;;;;;;;;5.17;100.00;93676.44;10564109;27;2718;-72
2023/11/03 22:14:05;;;;;;;;;;;;;;;5.06;100.00;93670.47;10569075;27;2589;-71
2023/11/03 22:19:07;;;;;;;;;;;;;;;4.97;100.00;93672.22;10567455;27;3067;-71
2023/11/03 22:24:10;;;;;;;;;;;;;;;5.00;100.00;93676.97;10564218;27;2608;-75
2023/11/03 22:29:12;;;;;;;;;;;;;;;4.97;100.00;93680.22;10565186;27;2588;-73
2023/11/03 22:34:15;;;;;;;;;;;;;;;4.96;100.00;93682.06;10544174;27;2673;-71
2023/11/03 22:39:18;;;;;;;;;;;;;;;4.83;100.00;93678.25;10568386;27;2572;-70
2023/11/03 22:44:23;;;;;;;;;;;;;;;4.78;100.00;93675.69;10563715;27;2608;-77
2023/11/03 22:49:25;;;;;;;;;;;;;;;4.79;100.00;93682.59;10569843;27;2635;-70
2023/11/03 22:54:28;;;;;;;;;;;;;;;4.74;100.00;93689.84;10568221;27;2715;-74
2023/11/03 22:59:32;;;;;;;;;;;;;;;4.67;100.00;93687.56;10569697;27;2714;-71
2023/11/03 23:04:34;;;;;;;;;;;;;;;4.64;100.00;93696.09;10569611;27;2799;-70
2023/11/03 23:09:36;;;;;;;;;;;;;;;4.58;100.00;93699.91;10569189;27;2675;-71
2023/11/03 23:14:39;;;;;;;;;;;;;;;4.62;100.00;93700.91;10564233;27;2616;-69
2023/11/03 23:19:42;;;;;;;;;;;;;;;4.60;100.00;93705.75;10549611;27;2549;-70
2023/11/03 23:24:44;;;;;;;;;;;;;;;4.60;100.00;93693.22;10562343;27;2587;-68
2023/11/03 23:29:47;;;;;;;;;;;;;;;4.60;100.00;93701.22;10565981;27;2676;-70
2023/11/03 23:34:49;;;;;;;;;;;;;;;4.62;100.00;93706.25;10566359;27;2565;-70
2023/11/03 23:39:52;;;;;;;;;;;;;;;4.60;100.00;93689.78;10562161;27;2637;-70
2023/11/03 23:44:54;;;;;;;;;;;;;;;4.59;100.00;93698.84;10569595;27;2630;-69
2023/11/03 23:49:59;;;;;;;;;;;;;;;4.57;100.00;93706.31;10568284;27;2621;-69
2023/11/03 23:55:02;;;;;;;;;;;;;;;4.54;100.00;93714.88;10569537;28;5217;-69
